Darstellungsparameter: Aktuell verwendete Einstellungen:
Skalierung der Graphiken ... ?
xyx+y,   Skalierungsfaktor:      Skalierung: Modus: x, Faktor: 1
Darstellungszeitraum ... ?
Vom - - bis: - -   Zeitraum: 02.05.2020 - 08.05.2020
Min/Max/Avg-Anzeige ... ?
Zeige MMA aktuell
Zeige MMA Monat
Zeige MMA alles
Zeige --A aktuell
Zeige --A Monat
Zeige --A alles
Keine MMA-Anzeige
MMA:
Average (ber die Originaldaten)
MMA-Basis: 02.05.2020 - 08.05.2020
Quicknavigation für Darstellung... ?
Tage:      1T, 2T, 3T, 5T -1T -2T -3T -5T +1T +2T +3T +5T
Wochen: 1W, 2W, 3W -1W -2W -3W +1W +2W +3W
Monate: 1M, 3M, 6M -1M -3M -6M +1M +3M +6M
Jahre:    1J, 3J, 5J, 10J -1J -3J -5J -10J +1J +3J +5J +10J
Nutze für die Darstellung ... ?
Originaldaten oder Mittelwerte auf ...
Stundenbasis Tagesbasis Wochenbasis
Monatsbasis Jahresbasis      Datenbasis: Original-Daten
Darstellen als:
Statistik (Auto) Statistik J:M      Darstellung:
Zur Graphik,    zurück zur Übersicht aller Sensoren.
 
Tabellarische Datenbersicht: ?
 
Sensor: Nr:Datum:Temp:Feuchte:
Aussen-T/F 1 02-05-2020 00:03:17 9.3 C 40 %
2 02-05-2020 00:13:17 9.2 C 40 %
3 02-05-2020 00:23:17 9 C 40 %
4 02-05-2020 00:33:18 8.9 C 40 %
5 02-05-2020 00:43:18 8.9 C 40 %
6 02-05-2020 00:53:17 8.9 C 40 %
7 02-05-2020 01:03:18 9.1 C 40 %
8 02-05-2020 01:13:18 9.3 C 39 %
9 02-05-2020 01:23:17 9.3 C 39 %
10 02-05-2020 01:33:17 9.1 C 40 %
11 02-05-2020 01:43:18 8.8 C 40 %
12 02-05-2020 01:53:17 8.5 C 40 %
13 02-05-2020 02:03:18 8.3 C 41 %
14 02-05-2020 02:13:18 8.3 C 42 %
15 02-05-2020 02:23:17 8.4 C 42 %
16 02-05-2020 02:33:18 8.7 C 41 %
17 02-05-2020 02:43:18 9.1 C 40 %
18 02-05-2020 02:53:17 9.3 C 39 %
19 02-05-2020 03:03:18 9.3 C 39 %
20 02-05-2020 03:13:18 9.1 C 39 %
21 02-05-2020 03:23:17 9.3 C 39 %
22 02-05-2020 03:33:17 9.2 C 39 %
23 02-05-2020 03:43:17 8.9 C 40 %
24 02-05-2020 03:53:17 8.9 C 40 %
25 02-05-2020 04:03:18 8.6 C 40 %
Sensor: Nr:Datum:Temp:Feuchte:
Aussen-T/F 26 02-05-2020 04:13:18 8.4 C 41 %
27 02-05-2020 04:23:17 8.4 C 41 %
28 02-05-2020 04:33:18 8.8 C 40 %
29 02-05-2020 04:43:18 9 C 39 %
30 02-05-2020 04:53:18 8.8 C 40 %
31 02-05-2020 05:03:17 8.8 C 39 %
32 02-05-2020 05:13:17 8.8 C 39 %
33 02-05-2020 05:23:17 8.7 C 39 %
34 02-05-2020 05:33:17 8.8 C 39 %
35 02-05-2020 05:43:17 8.4 C 40 %
36 02-05-2020 05:53:17 8.2 C 39 %
37 02-05-2020 06:03:17 8.2 C 39 %
38 02-05-2020 06:13:17 7.7 C 40 %
39 02-05-2020 06:23:17 7.9 C 40 %
40 02-05-2020 06:33:17 7.9 C 40 %
41 02-05-2020 06:43:17 8 C 39 %
42 02-05-2020 06:53:17 8.2 C 39 %
43 02-05-2020 07:03:17 8 C 39 %
44 02-05-2020 07:13:17 8.3 C 39 %
45 02-05-2020 07:23:17 8.4 C 38 %
46 02-05-2020 07:33:17 8.2 C 38 %
47 02-05-2020 07:43:17 8 C 39 %
48 02-05-2020 07:53:17 8.4 C 39 %
49 02-05-2020 08:03:17 8.5 C 39 %
50 02-05-2020 08:13:17 8.9 C 38 %
Sensor: Nr:Datum:Temp:Feuchte:
Aussen-T/F 51 02-05-2020 08:23:17 9 C 37 %
52 02-05-2020 08:33:17 9.8 C 37 %
53 02-05-2020 08:43:17 9.8 C 37 %
54 02-05-2020 08:53:17 9.5 C 37 %
55 02-05-2020 09:03:17 9.6 C 36 %
56 02-05-2020 09:13:17 9.7 C 36 %
57 02-05-2020 09:23:17 9.9 C 36 %
58 02-05-2020 09:33:17 10.8 C 35 %
59 02-05-2020 09:43:17 10.8 C 35 %
60 02-05-2020 09:53:17 10.2 C 35 %
61 02-05-2020 10:03:18 9.7 C 36 %
62 02-05-2020 10:13:18 8.6 C 40 %
63 02-05-2020 10:23:17 6.8 C 41 %
64 02-05-2020 10:33:17 6.7 C 44 %
65 02-05-2020 10:43:17 6.7 C 43 %
66 02-05-2020 10:53:17 6.9 C 43 %
67 02-05-2020 11:03:17 7.4 C 42 %
68 02-05-2020 11:13:17 8.4 C 40 %
69 02-05-2020 11:23:17 8.7 C 40 %
70 02-05-2020 11:33:17 8.8 C 40 %
71 02-05-2020 11:43:17 9.3 C 39 %
72 02-05-2020 11:53:17 9.2 C 39 %
73 02-05-2020 12:03:17 9.6 C 38 %
74 02-05-2020 12:13:17 10 C 36 %
75 02-05-2020 12:23:17 10.3 C 36 %
Sensor: Nr:Datum:Temp:Feuchte:
Aussen-T/F 76 02-05-2020 12:33:18 10.8 C 36 %
77 02-05-2020 12:43:18 11.8 C 35 %
78 02-05-2020 12:53:17 10.4 C 37 %
79 02-05-2020 13:03:17 11.7 C 32 %
80 02-05-2020 13:13:17 12.1 C 31 %
81 02-05-2020 13:23:17 11.4 C 32 %
82 02-05-2020 13:33:17 11.3 C 32 %
83 02-05-2020 13:43:17 11.5 C 33 %
84 02-05-2020 13:53:17 12.2 C 32 %
85 02-05-2020 14:03:17 12.7 C 31 %
86 02-05-2020 14:13:17 14.3 C 28 %
87 02-05-2020 14:23:18 15.6 C 25 %
88 02-05-2020 14:33:17 12.8 C 27 %
89 02-05-2020 14:43:18 8.8 C 37 %
90 02-05-2020 14:53:17 8.4 C 40 %
91 02-05-2020 15:03:17 7.7 C 42 %
92 02-05-2020 15:13:17 8.1 C 45 %
93 02-05-2020 15:23:17 8.9 C 41 %
94 02-05-2020 15:33:18 13.2 C 32 %
95 02-05-2020 15:43:18 17.2 C 29 %
96 02-05-2020 15:53:17 16.8 C 25 %
97 02-05-2020 16:03:17 18.1 C 23 %
98 02-05-2020 16:13:17 19.2 C 20 %
99 02-05-2020 16:23:17 19.8 C 20 %
100 02-05-2020 16:33:17 16.9 C 20 %
Sensor: Nr:Datum:Temp:Feuchte:
Aussen-T/F 101 02-05-2020 16:43:17 14.2 C 28 %
102 02-05-2020 16:53:17 13.5 C 29 %
103 02-05-2020 17:03:17 18.1 C 23 %
104 02-05-2020 17:13:17 16.2 C 22 %
105 02-05-2020 17:23:18 14.5 C 25 %
106 02-05-2020 17:33:18 14 C 28 %
107 02-05-2020 17:43:18 14.2 C 27 %
108 02-05-2020 17:53:17 16.8 C 22 %
109 02-05-2020 18:03:17 14.7 C 20 %
110 02-05-2020 18:13:17 14.1 C 22 %
111 02-05-2020 18:23:17 13.3 C 26 %
112 02-05-2020 18:33:17 13.2 C 27 %
113 02-05-2020 18:43:17 12.6 C 29 %
114 02-05-2020 18:53:17 12.3 C 29 %
115 02-05-2020 19:03:17 11.9 C 31 %
116 02-05-2020 19:13:17 11.2 C 31 %
117 02-05-2020 19:23:17 11.7 C 29 %
118 02-05-2020 19:33:17 11.5 C 29 %
119 02-05-2020 19:43:18 11.5 C 30 %
120 02-05-2020 19:53:17 11.9 C 30 %
121 02-05-2020 20:03:17 12.1 C 30 %
122 02-05-2020 20:13:17 11.5 C 30 %
123 02-05-2020 20:23:17 11.3 C 30 %
124 02-05-2020 20:33:17 10 C 35 %
125 02-05-2020 20:43:17 9.2 C 38 %
Sensor: Nr:Datum:Temp:Feuchte:
Aussen-T/F 126 02-05-2020 20:53:17 8.8 C 39 %
127 02-05-2020 21:03:17 8.5 C 40 %
128 02-05-2020 21:13:17 8.3 C 40 %
129 02-05-2020 21:23:17 8.2 C 39 %
130 02-05-2020 21:33:17 7.9 C 40 %
131 02-05-2020 21:43:17 7.8 C 41 %
132 02-05-2020 21:53:18 7.4 C 41 %
133 02-05-2020 22:03:17 6.9 C 43 %
134 02-05-2020 22:13:17 6.8 C 44 %
135 02-05-2020 22:23:17 6.5 C 45 %
136 02-05-2020 22:33:17 6.3 C 45 %
137 02-05-2020 22:43:17 6.3 C 45 %
138 02-05-2020 22:53:18 6.6 C 45 %
139 02-05-2020 23:03:17 6.6 C 44 %
140 02-05-2020 23:13:17 6.4 C 44 %
141 02-05-2020 23:23:17 6.4 C 44 %
142 02-05-2020 23:33:17 6.4 C 44 %
143 02-05-2020 23:43:17 6.2 C 44 %
144 02-05-2020 23:53:17 6 C 45 %
145 03-05-2020 00:03:17 6 C 45 %
146 03-05-2020 00:13:17 5.8 C 46 %
147 03-05-2020 00:23:17 5.9 C 46 %
148 03-05-2020 00:33:17 5.6 C 46 %
149 03-05-2020 00:43:17 5.5 C 46 %
150 03-05-2020 00:53:17 5.3 C 46 %
Sensor: Nr:Datum:Temp:Feuchte:
Aussen-T/F 151 03-05-2020 01:03:18 5.2 C 46 %
152 03-05-2020 01:13:18 5.1 C 46 %
153 03-05-2020 01:23:17 4.8 C 47 %
154 03-05-2020 01:33:18 4.6 C 47 %
155 03-05-2020 01:43:18 4.7 C 47 %
156 03-05-2020 01:53:18 4.7 C 47 %
157 03-05-2020 02:03:18 4.7 C 47 %
158 03-05-2020 02:13:18 5 C 46 %
159 03-05-2020 02:23:17 4.7 C 47 %
160 03-05-2020 02:33:18 4.5 C 47 %
161 03-05-2020 02:43:18 4.5 C 47 %
162 03-05-2020 02:53:17 4.3 C 47 %
163 03-05-2020 03:03:17 4.2 C 47 %
164 03-05-2020 03:13:17 4 C 47 %
165 03-05-2020 03:23:17 4.2 C 47 %
166 03-05-2020 03:33:18 4.3 C 47 %
167 03-05-2020 03:43:18 4.1 C 46 %
168 03-05-2020 03:53:17 3.8 C 47 %
169 03-05-2020 04:03:18 3.8 C 47 %
170 03-05-2020 04:13:18 3.6 C 47 %
171 03-05-2020 04:23:18 3.5 C 47 %
172 03-05-2020 04:33:17 3.3 C 47 %
173 03-05-2020 04:43:17 3 C 47 %
174 03-05-2020 04:53:17 3.1 C 47 %
175 03-05-2020 05:03:17 2.9 C 48 %
Sensor: Nr:Datum:Temp:Feuchte:
Aussen-T/F 176 03-05-2020 05:13:17 2.8 C 48 %
177 03-05-2020 05:23:17 2.8 C 48 %
178 03-05-2020 05:33:17 2.8 C 48 %
179 03-05-2020 05:43:17 2.8 C 48 %
180 03-05-2020 05:53:17 3.1 C 47 %
181 03-05-2020 06:03:17 3.3 C 47 %
182 03-05-2020 06:13:17 3.6 C 47 %
183 03-05-2020 06:23:17 3.9 C 47 %
184 03-05-2020 06:33:18 4 C 46 %
185 03-05-2020 06:43:18 4 C 46 %
186 03-05-2020 06:53:17 4 C 46 %
187 03-05-2020 07:03:17 4 C 46 %
188 03-05-2020 07:13:17 4.1 C 46 %
189 03-05-2020 07:23:18 4.2 C 46 %
190 03-05-2020 07:33:18 4.2 C 46 %
191 03-05-2020 07:43:18 4.4 C 46 %
192 03-05-2020 07:53:18 4.7 C 46 %
193 03-05-2020 08:03:18 4.6 C 46 %
194 03-05-2020 08:13:18 5 C 46 %
195 03-05-2020 08:23:18 5.5 C 46 %
196 03-05-2020 08:33:17 5.4 C 46 %
197 03-05-2020 08:43:17 6.1 C 45 %
198 03-05-2020 08:53:17 6.2 C 43 %
199 03-05-2020 09:03:17 6.5 C 43 %
200 03-05-2020 09:13:17 6.4 C 42 %
Sensor: Nr:Datum:Temp:Feuchte:
Aussen-T/F 201 03-05-2020 09:23:17 7.2 C 41 %
202 03-05-2020 09:33:18 7.6 C 42 %
203 03-05-2020 09:43:18 7.6 C 40 %
204 03-05-2020 09:53:17 8.6 C 40 %
205 03-05-2020 10:03:17 8.9 C 40 %
206 03-05-2020 10:13:17 9.7 C 40 %
207 03-05-2020 10:23:18 10.1 C 37 %
208 03-05-2020 10:33:17 10.7 C 39 %
209 03-05-2020 10:43:17 11.6 C 36 %
210 03-05-2020 10:53:17 12.5 C 34 %
211 03-05-2020 11:03:17 12.7 C 33 %
212 03-05-2020 11:13:17 13.5 C 32 %
213 03-05-2020 11:23:17 14.4 C 31 %
214 03-05-2020 11:33:17 14.5 C 30 %
215 03-05-2020 11:43:18 14.8 C 28 %
216 03-05-2020 11:53:18 14.5 C 25 %
217 03-05-2020 12:03:18 14.5 C 25 %
218 03-05-2020 12:13:18 14.7 C 25 %
219 03-05-2020 12:23:17 14.7 C 22 %
220 03-05-2020 12:33:18 14.7 C 23 %
221 03-05-2020 12:43:18 14.9 C 23 %
222 03-05-2020 12:53:17 15.1 C 20 %
223 03-05-2020 13:03:18 16.2 C 20 %
224 03-05-2020 13:13:18 16.1 C 20 %
225 03-05-2020 13:23:17 16.3 C 20 %
Sensor: Nr:Datum:Temp:Feuchte:
Aussen-T/F 226 03-05-2020 13:33:18 16.3 C 20 %
227 03-05-2020 13:43:18 16.6 C 20 %
228 03-05-2020 13:53:18 17 C 20 %
229 03-05-2020 14:03:18 17.4 C 20 %
230 03-05-2020 14:13:18 18.4 C 20 %
231 03-05-2020 14:23:17 19.4 C 20 %
232 03-05-2020 14:33:18 23.3 C 20 %
233 03-05-2020 14:43:18 22.4 C 20 %
234 03-05-2020 14:53:17 20.3 C 20 %
235 03-05-2020 15:03:17 20.3 C 20 %
236 03-05-2020 15:13:17 20.6 C 20 %
237 03-05-2020 15:23:17 19.6 C 20 %
238 03-05-2020 15:33:18 19 C 20 %
239 03-05-2020 15:43:18 21.2 C 20 %
240 03-05-2020 15:53:17 19.3 C 20 %
241 03-05-2020 16:03:17 19 C 20 %
242 03-05-2020 16:13:17 18.5 C 20 %
243 03-05-2020 16:23:17 17.9 C 20 %
244 03-05-2020 16:33:18 17.9 C 20 %
245 03-05-2020 16:43:18 18.9 C 20 %
246 03-05-2020 16:53:17 18.2 C 20 %
247 03-05-2020 17:03:17 17.8 C 20 %
248 03-05-2020 17:13:17 18.1 C 20 %
249 03-05-2020 17:23:18 17.2 C 20 %
250 03-05-2020 17:33:17 17.6 C 20 %
Sensor: Nr:Datum:Temp:Feuchte:
Aussen-T/F 251 03-05-2020 17:43:17 17.6 C 20 %
252 03-05-2020 17:53:18 17.3 C 20 %
253 03-05-2020 18:03:18 16.9 C 20 %
254 03-05-2020 18:13:18 16.9 C 20 %
255 03-05-2020 18:23:17 17.2 C 20 %
256 03-05-2020 18:33:17 16.7 C 20 %
257 03-05-2020 18:43:17 17 C 20 %
258 03-05-2020 18:53:17 16.7 C 20 %
259 03-05-2020 19:03:17 16.2 C 20 %
260 03-05-2020 19:13:17 15.7 C 21 %
261 03-05-2020 19:23:17 15.6 C 22 %
262 03-05-2020 19:33:18 15.2 C 27 %
263 03-05-2020 19:43:18 14.1 C 29 %
264 03-05-2020 19:53:17 13.8 C 30 %
265 03-05-2020 20:03:17 13.3 C 30 %
266 03-05-2020 20:13:17 13 C 30 %
267 03-05-2020 20:23:17 12.8 C 31 %
268 03-05-2020 20:33:18 12.5 C 31 %
269 03-05-2020 20:43:18 12.4 C 31 %
270 03-05-2020 20:53:17 12.3 C 32 %
271 03-05-2020 21:03:17 12.1 C 32 %
272 03-05-2020 21:13:17 12.1 C 32 %
273 03-05-2020 21:23:17 12 C 32 %
274 03-05-2020 21:33:17 12.1 C 32 %
275 03-05-2020 21:43:18 12 C 32 %
Sensor: Nr:Datum:Temp:Feuchte:
Aussen-T/F 276 03-05-2020 21:53:17 12 C 33 %
277 03-05-2020 22:03:18 12 C 33 %
278 03-05-2020 22:13:18 11.8 C 34 %
279 03-05-2020 22:23:17 11.8 C 34 %
280 03-05-2020 22:33:17 11.7 C 34 %
281 03-05-2020 22:43:17 11.6 C 34 %
282 03-05-2020 22:53:18 11.4 C 35 %
283 03-05-2020 23:03:17 11.3 C 35 %
284 03-05-2020 23:13:17 11.2 C 34 %
285 03-05-2020 23:23:17 11.4 C 35 %
286 03-05-2020 23:33:17 11.4 C 34 %
287 03-05-2020 23:43:17 11.3 C 35 %
288 03-05-2020 23:53:17 11.4 C 35 %
289 04-05-2020 00:03:17 11.4 C 35 %
290 04-05-2020 00:13:17 11.2 C 35 %
291 04-05-2020 00:23:17 11 C 36 %
292 04-05-2020 00:33:18 11 C 36 %
293 04-05-2020 00:43:18 11.1 C 36 %
294 04-05-2020 00:53:17 11 C 36 %
295 04-05-2020 01:03:17 10.9 C 36 %
296 04-05-2020 01:13:17 10.8 C 36 %
297 04-05-2020 01:23:17 11.1 C 35 %
298 04-05-2020 01:33:17 11 C 35 %
299 04-05-2020 01:43:17 11.1 C 35 %
300 04-05-2020 01:53:17 11 C 35 %
Sensor: Nr:Datum:Temp:Feuchte:
Aussen-T/F 301 04-05-2020 02:03:17 10.8 C 37 %
302 04-05-2020 02:13:17 10.8 C 36 %
303 04-05-2020 02:23:17 10.6 C 37 %
304 04-05-2020 02:33:18 10.7 C 36 %
305 04-05-2020 02:43:18 10.7 C 37 %
306 04-05-2020 02:53:17 10.1 C 37 %
307 04-05-2020 03:03:17 9.9 C 37 %
308 04-05-2020 03:13:17 9.7 C 37 %
309 04-05-2020 03:23:17 9.4 C 38 %
310 04-05-2020 03:33:17 9.1 C 39 %
311 04-05-2020 03:43:17 9.1 C 38 %
312 04-05-2020 03:53:18 8.8 C 39 %
313 04-05-2020 04:03:17 8.5 C 40 %
314 04-05-2020 04:13:17 8.6 C 40 %
315 04-05-2020 04:23:17 8.8 C 40 %
316 04-05-2020 04:33:17 9 C 40 %
317 04-05-2020 04:43:17 9.2 C 40 %
318 04-05-2020 04:53:18 9.3 C 40 %
319 04-05-2020 05:03:17 9.5 C 39 %
320 04-05-2020 05:13:17 9.6 C 40 %
321 04-05-2020 05:23:17 9.6 C 39 %
322 04-05-2020 05:33:18 9.8 C 39 %
323 04-05-2020 05:43:18 9.7 C 39 %
324 04-05-2020 05:53:17 9.7 C 39 %
325 04-05-2020 06:03:18 9.6 C 40 %
Sensor: Nr:Datum:Temp:Feuchte:
Aussen-T/F 326 04-05-2020 06:13:18 9.6 C 40 %
327 04-05-2020 06:23:18 9.6 C 40 %
328 04-05-2020 06:33:17 9.6 C 40 %
329 04-05-2020 06:43:17 9.5 C 40 %
330 04-05-2020 06:53:17 9.6 C 40 %
331 04-05-2020 07:03:17 9.8 C 40 %
332 04-05-2020 07:13:17 10.1 C 40 %
333 04-05-2020 07:23:17 10.6 C 39 %
334 04-05-2020 07:33:17 11.2 C 37 %
335 04-05-2020 07:43:18 11.4 C 36 %
336 04-05-2020 07:53:17 11.3 C 37 %
337 04-05-2020 08:03:17 10.8 C 40 %
338 04-05-2020 08:13:17 10.6 C 41 %
339 04-05-2020 08:23:17 10.7 C 43 %
340 04-05-2020 08:33:17 11 C 42 %
341 04-05-2020 08:43:18 11.3 C 42 %
342 04-05-2020 08:53:17 11.2 C 41 %
343 04-05-2020 09:03:18 11.2 C 41 %
344 04-05-2020 09:13:18 11.3 C 41 %
345 04-05-2020 09:23:18 11.3 C 42 %
346 04-05-2020 09:33:17 11.3 C 43 %
347 04-05-2020 09:43:17 11.5 C 41 %
348 04-05-2020 09:53:17 12.3 C 39 %
349 04-05-2020 10:03:18 13 C 37 %
350 04-05-2020 10:13:18 14 C 36 %
Sensor: Nr:Datum:Temp:Feuchte:
Aussen-T/F 351 04-05-2020 10:23:17 13.6 C 36 %
352 04-05-2020 10:33:18 14.8 C 35 %
353 04-05-2020 10:43:18 14.3 C 35 %
354 04-05-2020 10:53:17 14.2 C 36 %
355 04-05-2020 11:03:17 13.4 C 37 %
356 04-05-2020 11:13:17 13.2 C 38 %
357 04-05-2020 11:23:17 13 C 39 %
358 04-05-2020 11:33:18 12.4 C 40 %
359 04-05-2020 11:43:18 12.2 C 40 %
360 04-05-2020 11:53:17 12 C 41 %
361 04-05-2020 12:03:17 11.9 C 41 %
362 04-05-2020 12:13:17 12.3 C 40 %
363 04-05-2020 12:23:17 13.1 C 38 %
364 04-05-2020 12:33:17 13.8 C 36 %
365 04-05-2020 12:43:17 13.5 C 37 %
366 04-05-2020 12:53:17 14.4 C 36 %
367 04-05-2020 13:03:18 14.5 C 35 %
368 04-05-2020 13:13:18 15.6 C 34 %
369 04-05-2020 13:23:17 16 C 32 %
370 04-05-2020 13:33:17 16.4 C 32 %
371 04-05-2020 13:43:17 16.3 C 31 %
372 04-05-2020 13:53:17 15.3 C 32 %
373 04-05-2020 14:03:17 15 C 32 %
374 04-05-2020 14:13:17 15.6 C 33 %
375 04-05-2020 14:23:17 16.2 C 31 %
Sensor: Nr:Datum:Temp:Feuchte:
Aussen-T/F 376 04-05-2020 14:33:17 15.9 C 31 %
377 04-05-2020 14:43:17 15.3 C 31 %
378 04-05-2020 14:53:17 15.2 C 32 %
379 04-05-2020 15:03:17 14.4 C 34 %
380 04-05-2020 15:13:17 14.4 C 34 %
381 04-05-2020 15:23:17 14.8 C 33 %
382 04-05-2020 15:33:17 14.5 C 33 %
383 04-05-2020 15:43:17 15.4 C 31 %
384 04-05-2020 15:53:17 15.8 C 31 %
385 04-05-2020 16:03:18 16 C 30 %
386 04-05-2020 16:13:18 15.9 C 30 %
387 04-05-2020 16:23:17 15.2 C 30 %
388 04-05-2020 16:33:17 14.4 C 30 %
389 04-05-2020 16:43:17 15 C 30 %
390 04-05-2020 16:53:18 14.9 C 30 %
391 04-05-2020 17:03:18 14.8 C 31 %
392 04-05-2020 17:13:18 14.4 C 31 %
393 04-05-2020 17:23:17 14.7 C 30 %
394 04-05-2020 17:33:18 14.4 C 31 %
395 04-05-2020 17:43:18 14.2 C 30 %
396 04-05-2020 17:53:17 14.4 C 30 %
397 04-05-2020 18:03:17 14.7 C 30 %
398 04-05-2020 18:13:17 14.4 C 30 %
399 04-05-2020 18:23:17 14 C 30 %
400 04-05-2020 18:33:17 13.8 C 31 %
Sensor: Nr:Datum:Temp:Feuchte:
Aussen-T/F 401 04-05-2020 18:43:17 13.7 C 31 %
402 04-05-2020 18:53:17 13.7 C 30 %
403 04-05-2020 19:03:17 13.7 C 31 %
404 04-05-2020 19:13:17 13.4 C 32 %
405 04-05-2020 19:23:17 13.1 C 33 %
406 04-05-2020 19:33:17 13 C 33 %
407 04-05-2020 19:43:17 12.8 C 34 %
408 04-05-2020 19:53:17 12.7 C 35 %
409 04-05-2020 20:03:18 12.7 C 35 %
410 04-05-2020 20:13:18 12.6 C 36 %
411 04-05-2020 20:23:17 12.2 C 36 %
412 04-05-2020 20:33:17 11.7 C 37 %
413 04-05-2020 20:43:18 11.8 C 35 %
414 04-05-2020 20:53:17 11.4 C 36 %
415 04-05-2020 21:03:17 10.8 C 36 %
416 04-05-2020 21:13:17 10.4 C 36 %
417 04-05-2020 21:23:18 9.9 C 36 %
418 04-05-2020 21:33:17 9.6 C 36 %
419 04-05-2020 21:43:17 9.1 C 37 %
420 04-05-2020 21:53:17 8.6 C 37 %
421 04-05-2020 22:03:17 8.5 C 37 %
422 04-05-2020 22:13:17 8.3 C 37 %
423 04-05-2020 22:23:17 7.7 C 40 %
424 04-05-2020 22:33:17 7.3 C 40 %
425 04-05-2020 22:43:17 7 C 41 %
Sensor: Nr:Datum:Temp:Feuchte:
Aussen-T/F 426 04-05-2020 22:53:17 6.9 C 42 %
427 04-05-2020 23:03:17 6.5 C 42 %
428 04-05-2020 23:13:17 6.3 C 42 %
429 04-05-2020 23:23:17 6.4 C 42 %
430 04-05-2020 23:33:17 6.5 C 41 %
431 04-05-2020 23:43:17 6.3 C 41 %
432 04-05-2020 23:53:17 6.1 C 42 %
433 05-05-2020 00:03:17 6.1 C 41 %
434 05-05-2020 00:13:17 5.9 C 42 %
435 05-05-2020 00:23:17 5.8 C 43 %
436 05-05-2020 00:33:18 5.5 C 43 %
437 05-05-2020 00:43:18 5.4 C 45 %
438 05-05-2020 00:53:17 5.4 C 44 %
439 05-05-2020 01:03:18 5.1 C 44 %
440 05-05-2020 01:13:18 5 C 45 %
441 05-05-2020 01:23:18 4.8 C 45 %
442 05-05-2020 01:33:17 4.7 C 46 %
443 05-05-2020 01:43:17 4.6 C 45 %
444 05-05-2020 01:53:18 4.3 C 46 %
445 05-05-2020 02:03:18 4.2 C 46 %
446 05-05-2020 02:13:18 4.2 C 46 %
447 05-05-2020 02:23:17 4.2 C 47 %
448 05-05-2020 02:33:17 4.1 C 46 %
449 05-05-2020 02:43:17 4 C 47 %
450 05-05-2020 02:53:17 4 C 47 %
Sensor: Nr:Datum:Temp:Feuchte:
Aussen-T/F 451 05-05-2020 03:03:17 3.9 C 48 %
452 05-05-2020 03:13:18 4.4 C 47 %
453 05-05-2020 03:23:17 4.4 C 47 %
454 05-05-2020 03:33:18 4.2 C 46 %
455 05-05-2020 03:43:18 4.2 C 47 %
456 05-05-2020 03:53:18 4.1 C 47 %
457 05-05-2020 04:03:17 4 C 47 %
458 05-05-2020 04:13:17 3.8 C 47 %
459 05-05-2020 04:23:17 3.7 C 47 %
460 05-05-2020 04:33:17 3.7 C 47 %
461 05-05-2020 04:43:18 3.6 C 47 %
462 05-05-2020 04:53:17 3.5 C 47 %
463 05-05-2020 05:03:18 3.4 C 47 %
464 05-05-2020 05:13:18 3.6 C 47 %
465 05-05-2020 05:23:17 3.7 C 47 %
466 05-05-2020 05:33:17 3.6 C 47 %
467 05-05-2020 05:43:17 3.5 C 47 %
468 05-05-2020 05:53:17 3.5 C 47 %
469 05-05-2020 06:03:17 3.6 C 47 %
470 05-05-2020 06:13:17 3.6 C 47 %
471 05-05-2020 06:23:17 3.8 C 47 %
472 05-05-2020 06:33:17 4.1 C 46 %
473 05-05-2020 06:43:17 4.2 C 46 %
474 05-05-2020 06:53:17 4.3 C 46 %
475 05-05-2020 07:03:17 4.6 C 46 %
Sensor: Nr:Datum:Temp:Feuchte:
Aussen-T/F 476 05-05-2020 07:13:17 4.9 C 46 %
477 05-05-2020 07:23:18 4.9 C 46 %
478 05-05-2020 07:33:17 5.3 C 46 %
479 05-05-2020 07:43:17 5.7 C 46 %
480 05-05-2020 07:53:17 6 C 45 %
481 05-05-2020 08:03:17 6.3 C 45 %
482 05-05-2020 08:13:17 6.4 C 44 %
483 05-05-2020 08:23:17 6.9 C 43 %
484 05-05-2020 08:33:17 6.9 C 42 %
485 05-05-2020 08:43:17 6.9 C 42 %
486 05-05-2020 08:53:17 7.1 C 41 %
487 05-05-2020 09:03:17 7.4 C 40 %
488 05-05-2020 09:13:17 7.9 C 39 %
489 05-05-2020 09:23:17 8.1 C 39 %
490 05-05-2020 09:33:17 8.6 C 38 %
491 05-05-2020 09:43:18 9.1 C 37 %
492 05-05-2020 09:53:17 9.3 C 36 %
493 05-05-2020 10:03:17 9.5 C 36 %
494 05-05-2020 10:13:17 10 C 34 %
495 05-05-2020 10:23:18 10.1 C 33 %
496 05-05-2020 10:33:17 10.5 C 32 %
497 05-05-2020 10:43:17 11 C 31 %
498 05-05-2020 10:53:17 11.3 C 31 %
499 05-05-2020 11:03:17 12.1 C 29 %
500 05-05-2020 11:13:17 12.2 C 28 %
Sensor: Nr:Datum:Temp:Feuchte:
Aussen-T/F 501 05-05-2020 11:23:18 13.1 C 27 %
502 05-05-2020 11:33:18 13.1 C 26 %
503 05-05-2020 11:43:18 13.4 C 26 %
504 05-05-2020 11:53:17 13.7 C 26 %
505 05-05-2020 12:03:18 13.7 C 25 %
506 05-05-2020 12:13:18 14.5 C 25 %
507 05-05-2020 12:23:17 13.9 C 25 %
508 05-05-2020 12:33:18 13.5 C 25 %
509 05-05-2020 12:43:18 13.7 C 25 %
510 05-05-2020 12:53:17 13.7 C 25 %
511 05-05-2020 13:03:18 13.9 C 25 %
512 05-05-2020 13:13:18 14.2 C 25 %
513 05-05-2020 13:23:18 14.5 C 24 %
514 05-05-2020 13:33:17 15.8 C 22 %
515 05-05-2020 13:43:17 15.9 C 21 %
516 05-05-2020 13:53:17 16.4 C 20 %
517 05-05-2020 14:03:17 15.3 C 20 %
518 05-05-2020 14:13:17 16 C 20 %
519 05-05-2020 14:23:17 21.9 C 20 %
520 05-05-2020 14:33:17 23.5 C 20 %
521 05-05-2020 14:43:17 24.9 C 20 %
522 05-05-2020 14:53:17 23.7 C 20 %
523 05-05-2020 15:03:17 21.4 C 20 %
524 05-05-2020 15:13:17 23.8 C 20 %
525 05-05-2020 15:23:17 24.3 C 20 %
Sensor: Nr:Datum:Temp:Feuchte:
Aussen-T/F 526 05-05-2020 15:33:17 25.4 C 20 %
527 05-05-2020 15:43:17 21.3 C 20 %
528 05-05-2020 15:53:17 22.1 C 20 %
529 05-05-2020 16:03:18 25 C 20 %
530 05-05-2020 16:13:18 21.3 C 20 %
531 05-05-2020 16:23:17 24.8 C 20 %
532 05-05-2020 16:33:17 25.9 C 20 %
533 05-05-2020 16:43:18 24.4 C 20 %
534 05-05-2020 16:53:17 24.7 C 20 %
535 05-05-2020 17:03:17 22.1 C 20 %
536 05-05-2020 17:13:17 25.1 C 20 %
537 05-05-2020 17:23:17 24.2 C 20 %
538 05-05-2020 17:33:18 23.7 C 20 %
539 05-05-2020 17:43:18 23.3 C 20 %
540 05-05-2020 17:53:17 21.2 C 20 %
541 05-05-2020 18:03:17 20 C 20 %
542 05-05-2020 18:13:17 18.4 C 20 %
543 05-05-2020 18:23:17 17.4 C 20 %
544 05-05-2020 18:33:18 17.6 C 20 %
545 05-05-2020 18:43:18 16.8 C 20 %
546 05-05-2020 18:53:17 16.9 C 20 %
547 05-05-2020 19:03:17 17.1 C 20 %
548 05-05-2020 19:13:17 16.5 C 20 %
549 05-05-2020 19:23:17 16.2 C 20 %
550 05-05-2020 19:33:17 16 C 20 %
Sensor: Nr:Datum:Temp:Feuchte:
Aussen-T/F 551 05-05-2020 19:43:18 15.7 C 20 %
552 05-05-2020 19:53:17 15.5 C 20 %
553 05-05-2020 20:03:18 15.2 C 20 %
554 05-05-2020 20:13:18 15.1 C 20 %
555 05-05-2020 20:23:17 14.6 C 20 %
556 05-05-2020 20:33:17 14.2 C 20 %
557 05-05-2020 20:43:17 13.8 C 20 %
558 05-05-2020 20:53:17 12.8 C 20 %
559 05-05-2020 21:03:17 11.3 C 21 %
560 05-05-2020 21:13:17 11 C 23 %
561 05-05-2020 21:23:17 10.7 C 21 %
562 05-05-2020 21:33:17 10.3 C 25 %
563 05-05-2020 21:43:17 10.1 C 22 %
564 05-05-2020 21:53:17 9.8 C 25 %
565 05-05-2020 22:03:17 9.7 C 25 %
566 05-05-2020 22:13:17 9.3 C 26 %
567 05-05-2020 22:23:17 9.4 C 26 %
568 05-05-2020 22:33:17 9.2 C 26 %
569 05-05-2020 22:43:17 9.1 C 26 %
570 05-05-2020 22:53:18 9.1 C 26 %
571 05-05-2020 23:03:17 8.7 C 27 %
572 05-05-2020 23:13:17 8.6 C 27 %
573 05-05-2020 23:23:18 8.2 C 27 %
574 05-05-2020 23:33:18 8 C 27 %
575 05-05-2020 23:43:18 7.5 C 29 %
Sensor: Nr:Datum:Temp:Feuchte:
Aussen-T/F 576 05-05-2020 23:53:18 7.6 C 29 %
577 06-05-2020 00:03:18 7.5 C 29 %
578 06-05-2020 00:13:18 7.4 C 30 %
579 06-05-2020 00:23:18 7 C 30 %
580 06-05-2020 00:33:17 6.8 C 31 %
581 06-05-2020 00:43:17 6.4 C 33 %
582 06-05-2020 00:53:17 6 C 33 %
583 06-05-2020 01:03:17 5.9 C 34 %
584 06-05-2020 01:13:17 5.7 C 35 %
585 06-05-2020 01:23:17 5 C 36 %
586 06-05-2020 01:33:17 4.7 C 37 %
587 06-05-2020 01:43:17 4.3 C 38 %
588 06-05-2020 01:53:18 4.2 C 38 %
589 06-05-2020 02:03:17 4 C 39 %
590 06-05-2020 02:13:17 3.7 C 40 %
591 06-05-2020 02:23:17 3.7 C 40 %
592 06-05-2020 02:33:18 3.6 C 40 %
593 06-05-2020 02:43:18 3.4 C 40 %
594 06-05-2020 02:53:17 3.1 C 41 %
595 06-05-2020 03:03:17 3.1 C 41 %
596 06-05-2020 03:13:17 2.8 C 42 %
597 06-05-2020 03:23:17 2.8 C 42 %
598 06-05-2020 03:33:17 2.5 C 42 %
599 06-05-2020 03:43:17 2.3 C 43 %
600 06-05-2020 03:53:18 2.3 C 43 %
Sensor: Nr:Datum:Temp:Feuchte:
Aussen-T/F 601 06-05-2020 04:03:17 2.4 C 43 %
602 06-05-2020 04:13:17 2.2 C 43 %
603 06-05-2020 04:23:17 2.4 C 44 %
604 06-05-2020 04:33:18 2.3 C 43 %
605 06-05-2020 04:43:18 2 C 44 %
606 06-05-2020 04:53:17 2 C 44 %
607 06-05-2020 05:03:17 2.1 C 45 %
608 06-05-2020 05:13:17 1.8 C 45 %
609 06-05-2020 05:23:17 1.8 C 46 %
610 06-05-2020 05:33:17 1.8 C 47 %
611 06-05-2020 05:43:17 1.7 C 46 %
612 06-05-2020 05:53:18 1.5 C 46 %
613 06-05-2020 06:03:18 1.5 C 46 %
614 06-05-2020 06:13:18 1.4 C 46 %
615 06-05-2020 06:23:17 1.4 C 47 %
616 06-05-2020 06:33:17 1.4 C 47 %
617 06-05-2020 06:43:17 1.5 C 47 %
618 06-05-2020 06:53:17 1.6 C 47 %
619 06-05-2020 07:03:17 1.7 C 47 %
620 06-05-2020 07:13:17 1.8 C 47 %
621 06-05-2020 07:23:17 2 C 47 %
622 06-05-2020 07:33:17 2.2 C 45 %
623 06-05-2020 07:43:17 2.4 C 46 %
624 06-05-2020 07:53:17 2.6 C 46 %
625 06-05-2020 08:03:18 2.8 C 45 %
Sensor: Nr:Datum:Temp:Feuchte:
Aussen-T/F 626 06-05-2020 08:13:18 3 C 44 %
627 06-05-2020 08:23:17 3.6 C 44 %
628 06-05-2020 08:33:17 3.7 C 44 %
629 06-05-2020 08:43:17 4.1 C 43 %
630 06-05-2020 08:53:18 4.7 C 42 %
631 06-05-2020 09:03:17 5.1 C 41 %
632 06-05-2020 09:13:18 5.7 C 41 %
633 06-05-2020 09:23:17 6.5 C 40 %
634 06-05-2020 09:33:17 6.8 C 39 %
635 06-05-2020 09:43:17 7.5 C 38 %
636 06-05-2020 09:53:17 7.8 C 37 %
637 06-05-2020 10:03:18 8.3 C 37 %
638 06-05-2020 10:13:18 9 C 35 %
639 06-05-2020 10:23:17 9.9 C 31 %
640 06-05-2020 10:33:18 11.7 C 25 %
641 06-05-2020 10:43:18 12.3 C 20 %
642 06-05-2020 10:53:17 12.4 C 20 %
643 06-05-2020 11:03:17 12.9 C 20 %
644 06-05-2020 11:13:17 13.1 C 20 %
645 06-05-2020 11:23:17 13.6 C 20 %
646 06-05-2020 11:33:17 13.7 C 20 %
647 06-05-2020 11:43:18 13.6 C 20 %
648 06-05-2020 11:53:17 13.9 C 20 %
649 06-05-2020 12:03:17 13.8 C 20 %
650 06-05-2020 12:13:17 13.8 C 20 %
Sensor: Nr:Datum:Temp:Feuchte:
Aussen-T/F 651 06-05-2020 12:23:18 14 C 20 %
652 06-05-2020 12:33:18 14.1 C 20 %
653 06-05-2020 12:43:18 13.8 C 20 %
654 06-05-2020 12:53:17 14.2 C 20 %
655 06-05-2020 13:03:18 14.3 C 20 %
656 06-05-2020 13:13:18 14.2 C 20 %
657 06-05-2020 13:23:18 14.6 C 20 %
658 06-05-2020 13:33:17 14.8 C 20 %
659 06-05-2020 13:43:18 14.8 C 20 %
660 06-05-2020 13:53:17 15.6 C 20 %
661 06-05-2020 14:03:18 18.6 C 20 %
662 06-05-2020 14:13:18 20.6 C 20 %
663 06-05-2020 14:23:17 23.8 C 20 %
664 06-05-2020 14:33:17 23.1 C 20 %
665 06-05-2020 14:43:17 23.1 C 20 %
666 06-05-2020 14:53:17 24.2 C 20 %
667 06-05-2020 15:03:17 24.4 C 20 %
668 06-05-2020 15:13:17 26.3 C 20 %
669 06-05-2020 15:23:17 22.6 C 20 %
670 06-05-2020 15:33:17 26.1 C 20 %
671 06-05-2020 15:43:17 23.6 C 20 %
672 06-05-2020 15:53:17 24.9 C 20 %
673 06-05-2020 16:03:18 24.5 C 20 %
674 06-05-2020 16:13:18 25.9 C 20 %
675 06-05-2020 16:23:17 25.5 C 20 %
Sensor: Nr:Datum:Temp:Feuchte:
Aussen-T/F 676 06-05-2020 16:33:17 26.9 C 20 %
677 06-05-2020 16:43:17 24.7 C 20 %
678 06-05-2020 16:53:17 24.5 C 20 %
679 06-05-2020 17:03:17 26.3 C 20 %
680 06-05-2020 17:13:17 23.5 C 20 %
681 06-05-2020 17:23:17 24.9 C 20 %
682 06-05-2020 17:33:17 24.1 C 20 %
683 06-05-2020 17:43:17 24.5 C 20 %
684 06-05-2020 17:53:18 25.2 C 20 %
685 06-05-2020 18:03:18 24.7 C 20 %
686 06-05-2020 18:13:18 20.4 C 20 %
687 06-05-2020 18:23:18 20.3 C 20 %
688 06-05-2020 18:33:17 19.6 C 20 %
689 06-05-2020 18:43:17 19.1 C 20 %
690 06-05-2020 18:53:17 18.7 C 20 %
691 06-05-2020 19:03:18 18.4 C 20 %
692 06-05-2020 19:13:18 18.1 C 20 %
693 06-05-2020 19:23:18 18.2 C 20 %
694 06-05-2020 19:33:17 17.7 C 20 %
695 06-05-2020 19:43:18 17.4 C 20 %
696 06-05-2020 19:53:17 17.2 C 20 %
697 06-05-2020 20:03:17 16.6 C 20 %
698 06-05-2020 20:13:17 16 C 20 %
699 06-05-2020 20:23:17 14.8 C 20 %
700 06-05-2020 20:33:18 14 C 20 %
Sensor: Nr:Datum:Temp:Feuchte:
Aussen-T/F 701 06-05-2020 20:43:18 13.5 C 20 %
702 06-05-2020 20:53:17 13 C 20 %
703 06-05-2020 21:03:17 12.8 C 20 %
704 06-05-2020 21:13:17 12.4 C 20 %
705 06-05-2020 21:23:18 11.9 C 25 %
706 06-05-2020 21:33:17 10.9 C 27 %
707 06-05-2020 21:43:17 10.5 C 29 %
708 06-05-2020 21:53:17 9.7 C 31 %
709 06-05-2020 22:03:18 9.4 C 31 %
710 06-05-2020 22:13:18 9.4 C 30 %
711 06-05-2020 22:23:17 9.1 C 32 %
712 06-05-2020 22:33:18 9 C 31 %
713 06-05-2020 22:43:18 8.6 C 32 %
714 06-05-2020 22:53:17 8.2 C 33 %
715 06-05-2020 23:03:17 8.1 C 33 %
716 06-05-2020 23:13:18 7.7 C 35 %
717 06-05-2020 23:23:17 7.2 C 35 %
718 06-05-2020 23:33:17 6.9 C 36 %
719 06-05-2020 23:43:17 6.8 C 36 %
720 06-05-2020 23:53:17 6.6 C 36 %
721 07-05-2020 00:03:17 6.4 C 36 %
722 07-05-2020 00:13:17 6.4 C 37 %
723 07-05-2020 00:23:17 6.1 C 37 %
724 07-05-2020 00:33:18 6.1 C 37 %
725 07-05-2020 00:43:18 6.1 C 37 %
Sensor: Nr:Datum:Temp:Feuchte:
Aussen-T/F 726 07-05-2020 00:53:17 6.3 C 37 %
727 07-05-2020 01:03:18 6.2 C 37 %
728 07-05-2020 01:13:18 6.2 C 37 %
729 07-05-2020 01:23:17 6 C 37 %
730 07-05-2020 01:33:18 5.9 C 38 %
731 07-05-2020 01:43:18 5.9 C 38 %
732 07-05-2020 01:53:17 5.2 C 39 %
733 07-05-2020 02:03:17 5.2 C 39 %
734 07-05-2020 02:13:17 5.2 C 39 %
735 07-05-2020 02:23:18 5.1 C 40 %
736 07-05-2020 02:33:17 4.8 C 40 %
737 07-05-2020 02:43:17 4.7 C 40 %
738 07-05-2020 02:53:17 4.6 C 41 %
739 07-05-2020 03:03:17 4.6 C 41 %
740 07-05-2020 03:13:18 4.5 C 41 %
741 07-05-2020 03:23:17 4.3 C 41 %
742 07-05-2020 03:33:17 4.4 C 41 %
743 07-05-2020 03:43:17 4.1 C 41 %
744 07-05-2020 03:53:17 4.2 C 42 %
745 07-05-2020 04:03:17 4.2 C 42 %
746 07-05-2020 04:13:17 4 C 42 %
747 07-05-2020 04:23:18 3.7 C 43 %
748 07-05-2020 04:33:17 3.6 C 43 %
749 07-05-2020 04:43:17 3.3 C 43 %
750 07-05-2020 04:53:17 3.2 C 44 %
Sensor: Nr:Datum:Temp:Feuchte:
Aussen-T/F 751 07-05-2020 05:03:17 3.2 C 45 %
752 07-05-2020 05:13:17 3.3 C 45 %
753 07-05-2020 05:23:17 3 C 44 %
754 07-05-2020 05:33:17 3.1 C 45 %
755 07-05-2020 05:43:17 3 C 45 %
756 07-05-2020 05:53:17 3.1 C 45 %
757 07-05-2020 06:03:17 3 C 45 %
758 07-05-2020 06:13:17 2.9 C 45 %
759 07-05-2020 06:23:17 2.9 C 46 %
760 07-05-2020 06:33:17 2.9 C 46 %
761 07-05-2020 06:43:17 2.7 C 46 %
762 07-05-2020 06:53:18 3 C 46 %
763 07-05-2020 07:03:17 3 C 45 %
764 07-05-2020 07:13:17 3 C 45 %
765 07-05-2020 07:23:17 3.2 C 46 %
766 07-05-2020 07:33:17 3.4 C 46 %
767 07-05-2020 07:43:17 3.6 C 45 %
768 07-05-2020 07:53:17 3.8 C 44 %
769 07-05-2020 08:03:17 3.9 C 44 %
770 07-05-2020 08:13:17 4.2 C 43 %
771 07-05-2020 08:23:17 4.5 C 43 %
772 07-05-2020 08:33:18 4.6 C 43 %
773 07-05-2020 08:43:18 5.1 C 41 %
774 07-05-2020 08:53:17 5.2 C 41 %
775 07-05-2020 09:03:17 5.8 C 41 %
Sensor: Nr:Datum:Temp:Feuchte:
Aussen-T/F 776 07-05-2020 09:13:17 6.2 C 41 %
777 07-05-2020 09:23:17 6.7 C 41 %
778 07-05-2020 09:33:18 7.5 C 40 %
779 07-05-2020 09:43:18 8.6 C 38 %
780 07-05-2020 09:53:17 8.8 C 38 %
781 07-05-2020 10:03:17 9.3 C 37 %
782 07-05-2020 10:13:17 9.8 C 36 %
783 07-05-2020 10:23:17 10.3 C 35 %
784 07-05-2020 10:33:17 11.3 C 35 %
785 07-05-2020 10:43:17 11.9 C 34 %
786 07-05-2020 10:53:17 13.4 C 30 %
787 07-05-2020 11:03:17 14.2 C 26 %
788 07-05-2020 11:13:17 14.7 C 28 %
789 07-05-2020 11:23:17 15.3 C 25 %
790 07-05-2020 11:33:17 15.4 C 25 %
791 07-05-2020 11:43:17 15.9 C 25 %
792 07-05-2020 11:53:17 16.2 C 22 %
793 07-05-2020 12:03:17 16.6 C 20 %
794 07-05-2020 12:13:17 16.8 C 20 %
795 07-05-2020 12:23:17 16.9 C 20 %
796 07-05-2020 12:33:17 17 C 20 %
797 07-05-2020 12:43:18 17 C 20 %
798 07-05-2020 12:53:17 17.3 C 20 %
799 07-05-2020 13:03:17 17.5 C 20 %
800 07-05-2020 13:13:17 17.6 C 20 %
Sensor: Nr:Datum:Temp:Feuchte:
Aussen-T/F 801 07-05-2020 13:23:17 17.6 C 20 %
802 07-05-2020 13:33:17 18.2 C 20 %
803 07-05-2020 13:43:17 18.5 C 20 %
804 07-05-2020 13:54:17 20.1 C 20 %
805 07-05-2020 14:03:17 23.3 C 20 %
806 07-05-2020 14:13:17 25.2 C 20 %
807 07-05-2020 14:23:17 27.5 C 20 %
808 07-05-2020 14:33:17 28.2 C 20 %
809 07-05-2020 14:43:17 28.7 C 20 %
810 07-05-2020 14:54:17 28.4 C 20 %
811 07-05-2020 15:03:18 28.7 C 20 %
812 07-05-2020 15:13:18 27.9 C 20 %
813 07-05-2020 15:23:17 28.5 C 20 %
814 07-05-2020 15:33:18 30.2 C 20 %
815 07-05-2020 15:43:18 29.3 C 20 %
816 07-05-2020 15:53:17 30 C 20 %
817 07-05-2020 16:03:17 30.1 C 20 %
818 07-05-2020 16:13:17 31.3 C 20 %
819 07-05-2020 16:24:17 28.8 C 20 %
820 07-05-2020 16:33:17 29.5 C 20 %
821 07-05-2020 16:43:17 31.1 C 20 %
822 07-05-2020 16:54:17 31.3 C 20 %
823 07-05-2020 17:03:17 29 C 20 %
824 07-05-2020 17:13:17 29.3 C 20 %
825 07-05-2020 17:23:17 28.6 C 20 %
Sensor: Nr:Datum:Temp:Feuchte:
Aussen-T/F 826 07-05-2020 17:33:17 30.2 C 20 %
827 07-05-2020 17:43:17 27.4 C 20 %
828 07-05-2020 17:53:17 27.9 C 20 %
829 07-05-2020 18:04:17 27.4 C 20 %
830 07-05-2020 18:13:17 24.5 C 20 %
831 07-05-2020 18:23:17 23.3 C 20 %
832 07-05-2020 18:33:17 23.5 C 20 %
833 07-05-2020 18:43:18 22.8 C 20 %
834 07-05-2020 18:54:17 22.1 C 20 %
835 07-05-2020 19:03:17 22.2 C 20 %
836 07-05-2020 19:13:18 22.1 C 20 %
837 07-05-2020 19:24:17 22 C 20 %
838 07-05-2020 19:33:17 21.4 C 20 %
839 07-05-2020 19:43:17 20.2 C 20 %
840 07-05-2020 19:54:17 19.3 C 20 %
841 07-05-2020 20:03:18 18.7 C 20 %
842 07-05-2020 20:13:18 18.1 C 20 %
843 07-05-2020 20:24:17 17.5 C 20 %
844 07-05-2020 20:34:17 17.1 C 20 %
845 07-05-2020 20:44:17 16.5 C 20 %
846 07-05-2020 20:54:17 16.2 C 20 %
847 07-05-2020 21:04:17 16 C 20 %
848 07-05-2020 21:14:17 15.4 C 21 %
849 07-05-2020 21:24:17 15 C 22 %
850 07-05-2020 21:34:17 14.6 C 25 %
Sensor: Nr:Datum:Temp:Feuchte:
Aussen-T/F 851 07-05-2020 21:43:17 14.2 C 25 %
852 07-05-2020 21:54:17 13.7 C 26 %
853 07-05-2020 22:04:17 13.2 C 27 %
854 07-05-2020 22:14:17 13.2 C 27 %
855 07-05-2020 22:24:17 12.8 C 30 %
856 07-05-2020 22:34:17 12.3 C 30 %
857 07-05-2020 22:44:17 12.3 C 30 %
858 07-05-2020 22:53:18 12.2 C 30 %
859 07-05-2020 23:04:17 11.7 C 31 %
860 07-05-2020 23:14:17 11.4 C 31 %
861 07-05-2020 23:24:17 11.4 C 30 %
862 07-05-2020 23:34:17 11.6 C 31 %
863 07-05-2020 23:44:17 11.2 C 32 %
864 07-05-2020 23:54:17 11.1 C 32 %
865 08-05-2020 00:04:17 10.7 C 33 %
866 08-05-2020 00:14:17 10.4 C 33 %
867 08-05-2020 00:24:17 10.2 C 33 %
868 08-05-2020 00:34:17 9.7 C 35 %
869 08-05-2020 00:44:17 9.6 C 35 %
870 08-05-2020 00:54:17 9.4 C 35 %
871 08-05-2020 01:04:17 9.4 C 35 %
872 08-05-2020 01:14:17 9.6 C 35 %
873 08-05-2020 01:24:17 9.6 C 35 %
874 08-05-2020 01:34:17 9.3 C 36 %
875 08-05-2020 01:44:17 9.8 C 36 %
Sensor: Nr:Datum:Temp:Feuchte:
Aussen-T/F 876 08-05-2020 01:54:18 9.5 C 36 %
877 08-05-2020 02:04:18 9.2 C 36 %
878 08-05-2020 02:13:18 8.9 C 37 %
879 08-05-2020 02:24:17 8.6 C 38 %
880 08-05-2020 02:34:17 8.4 C 38 %
881 08-05-2020 02:44:17 8.2 C 38 %
882 08-05-2020 02:54:17 7.9 C 39 %
883 08-05-2020 03:04:17 7.9 C 39 %
884 08-05-2020 03:14:17 7.9 C 39 %
885 08-05-2020 03:24:17 7.8 C 40 %
886 08-05-2020 03:34:18 7.7 C 40 %
887 08-05-2020 03:44:18 7.5 C 40 %
888 08-05-2020 03:54:17 7.4 C 40 %
889 08-05-2020 04:04:18 7.5 C 40 %
890 08-05-2020 04:14:18 7 C 40 %
891 08-05-2020 04:24:18 6.9 C 41 %
892 08-05-2020 04:34:18 6.8 C 42 %
893 08-05-2020 04:44:18 7 C 41 %
894 08-05-2020 04:54:18 7.3 C 41 %
895 08-05-2020 05:04:18 7.3 C 41 %
896 08-05-2020 05:14:18 7.4 C 41 %
897 08-05-2020 05:24:17 7.5 C 41 %
898 08-05-2020 05:34:17 7.2 C 41 %
899 08-05-2020 05:44:17 7 C 41 %
900 08-05-2020 05:54:18 7.1 C 41 %
Sensor: Nr:Datum:Temp:Feuchte:
Aussen-T/F 901 08-05-2020 06:04:17 6.9 C 42 %
902 08-05-2020 06:14:17 6.9 C 42 %
903 08-05-2020 06:24:17 6.8 C 42 %
904 08-05-2020 06:34:17 6.7 C 43 %
905 08-05-2020 06:44:17 6.4 C 42 %
906 08-05-2020 06:54:17 6.3 C 43 %
907 08-05-2020 07:04:17 6.5 C 43 %
908 08-05-2020 07:14:17 6.9 C 44 %
909 08-05-2020 07:24:17 7.3 C 42 %
910 08-05-2020 07:34:18 7.3 C 41 %
911 08-05-2020 07:44:18 7.4 C 42 %
912 08-05-2020 07:54:17 7.9 C 41 %
913 08-05-2020 08:04:17 8.2 C 40 %
914 08-05-2020 08:14:17 8.4 C 40 %
915 08-05-2020 08:24:17 8.4 C 40 %
916 08-05-2020 08:34:17 8.5 C 40 %
917 08-05-2020 08:44:17 8.7 C 40 %
918 08-05-2020 08:54:17 9 C 40 %
919 08-05-2020 09:04:17 9.5 C 39 %
920 08-05-2020 09:14:17 10.2 C 37 %
921 08-05-2020 09:24:17 10.7 C 37 %
922 08-05-2020 09:34:17 11.1 C 36 %
923 08-05-2020 09:44:17 11.8 C 36 %
924 08-05-2020 09:54:17 12.2 C 35 %
925 08-05-2020 10:04:17 12.5 C 35 %
Sensor: Nr:Datum:Temp:Feuchte:
Aussen-T/F 926 08-05-2020 10:14:17 13.1 C 34 %
927 08-05-2020 10:24:17 14 C 33 %
928 08-05-2020 10:34:17 14.6 C 32 %
929 08-05-2020 10:44:18 15.8 C 28 %
930 08-05-2020 10:54:17 16.7 C 27 %
931 08-05-2020 11:04:17 17.1 C 26 %
932 08-05-2020 11:14:17 17.5 C 27 %
933 08-05-2020 11:24:17 17.7 C 27 %
934 08-05-2020 11:34:17 18.2 C 25 %
935 08-05-2020 11:44:18 18.9 C 22 %
936 08-05-2020 11:54:17 19 C 21 %
937 08-05-2020 12:04:17 19.3 C 20 %
938 08-05-2020 12:14:18 19.4 C 20 %
939 08-05-2020 12:24:17 19.5 C 20 %
940 08-05-2020 12:34:17 19.8 C 20 %
941 08-05-2020 12:44:17 20 C 20 %
942 08-05-2020 12:54:17 20.3 C 20 %
943 08-05-2020 13:04:16 20.7 C 20 %
944 08-05-2020 13:14:16 21.4 C 20 %
945 08-05-2020 13:24:17 21.9 C 20 %
946 08-05-2020 13:34:17 22.3 C 20 %
947 08-05-2020 13:44:17 22.5 C 20 %
948 08-05-2020 13:54:16 24 C 20 %
949 08-05-2020 14:04:17 26.1 C 20 %
950 08-05-2020 14:14:17 27.5 C 20 %
Sensor: Nr:Datum:Temp:Feuchte:
Aussen-T/F 951 08-05-2020 14:24:17 28.2 C 20 %
952 08-05-2020 14:34:16 30 C 20 %
953 08-05-2020 14:44:16 27.5 C 20 %
954 08-05-2020 14:54:17 27.3 C 20 %
955 08-05-2020 15:04:17 26 C 20 %
956 08-05-2020 15:14:18 25.2 C 20 %
957 08-05-2020 15:24:17 25.8 C 20 %
958 08-05-2020 15:34:16 27.1 C 20 %
959 08-05-2020 15:44:16 28.3 C 20 %
960 08-05-2020 15:54:17 30.6 C 20 %
961 08-05-2020 16:04:17 31.3 C 20 %
962 08-05-2020 16:14:17 29.3 C 20 %
963 08-05-2020 16:24:17 32 C 20 %
964 08-05-2020 16:34:16 30.5 C 20 %
965 08-05-2020 16:44:16 27.4 C 20 %
966 08-05-2020 16:54:16 26.3 C 20 %
967 08-05-2020 17:04:17 26.8 C 20 %
968 08-05-2020 17:14:17 26.3 C 20 %
969 08-05-2020 17:24:16 28.5 C 20 %
970 08-05-2020 17:34:16 26.8 C 20 %
971 08-05-2020 17:44:16 28.8 C 20 %
972 08-05-2020 17:54:16 27.5 C 20 %
973 08-05-2020 18:04:17 26.5 C 20 %
974 08-05-2020 18:14:17 25.5 C 20 %
975 08-05-2020 18:24:16 25.1 C 20 %
Sensor: Nr:Datum:Temp:Feuchte:
Aussen-T/F 976 08-05-2020 18:34:17 25.1 C 20 %
977 08-05-2020 18:44:18 24.4 C 20 %
978 08-05-2020 18:54:16 24 C 20 %
979 08-05-2020 19:04:16 23.5 C 20 %
980 08-05-2020 19:14:16 23.7 C 20 %
981 08-05-2020 19:24:16 23.6 C 20 %
982 08-05-2020 19:34:16 22.9 C 20 %
983 08-05-2020 19:44:16 22.4 C 20 %
984 08-05-2020 19:54:16 21.6 C 20 %
985 08-05-2020 20:04:17 19.7 C 20 %
986 08-05-2020 20:14:17 18.8 C 20 %
987 08-05-2020 20:24:16 18.5 C 20 %
988 08-05-2020 20:34:17 18.2 C 20 %
989 08-05-2020 20:44:17 17.7 C 20 %
990 08-05-2020 20:54:17 17.3 C 20 %
991 08-05-2020 21:04:17 17.1 C 20 %
992 08-05-2020 21:14:17 16.9 C 20 %
993 08-05-2020 21:24:16 16.4 C 21 %
994 08-05-2020 21:34:16 16 C 22 %
995 08-05-2020 21:44:16 15.7 C 24 %
996 08-05-2020 21:54:16 15.2 C 25 %
997 08-05-2020 22:04:17 14.9 C 26 %
998 08-05-2020 22:14:17 15 C 26 %
999 08-05-2020 22:24:16 14.9 C 27 %
1000 08-05-2020 22:34:16 14.7 C 27 %
Sensor: Nr:Datum:Temp:Feuchte:
Aussen-T/F 1001 08-05-2020 22:44:16 14.3 C 28 %
1002 08-05-2020 22:54:16 14.1 C 27 %
1003 08-05-2020 23:04:17 14 C 27 %
1004 08-05-2020 23:14:17 13.7 C 28 %
1005 08-05-2020 23:24:16 13.6 C 29 %
1006 08-05-2020 23:34:16 13.3 C 29 %
1007 08-05-2020 23:44:16 13.2 C 29 %
1008 08-05-2020 23:54:16 13.3 C 29 %
Sensor: Nr:Datum:Temp:Feuchte:
G-T/H 1 02-05-2020 00:03:17 13.3 C 65 %
2 02-05-2020 00:13:17 13.3 C 65 %
3 02-05-2020 00:23:17 13.3 C 65 %
4 02-05-2020 00:33:18 13.3 C 65 %
5 02-05-2020 00:43:18 13.3 C 65 %
6 02-05-2020 00:53:17 13.3 C 65 %
7 02-05-2020 01:03:18 13.2 C 65 %
8 02-05-2020 01:13:18 13.2 C 65 %
9 02-05-2020 01:23:17 13.3 C 65 %
10 02-05-2020 01:33:17 13.2 C 65 %
11 02-05-2020 01:43:18 13.2 C 65 %
12 02-05-2020 01:53:17 13.2 C 65 %
13 02-05-2020 02:03:18 13.2 C 65 %
14 02-05-2020 02:13:18 13.2 C 65 %
15 02-05-2020 02:23:17 13.2 C 65 %
16 02-05-2020 02:33:18 13.2 C 65 %
17 02-05-2020 02:43:18 13.2 C 65 %
18 02-05-2020 02:53:17 13.1 C 65 %
19 02-05-2020 03:03:18 13.2 C 65 %
20 02-05-2020 03:13:18 13.2 C 65 %
21 02-05-2020 03:23:17 13.1 C 65 %
22 02-05-2020 03:33:17 13.1 C 65 %
23 02-05-2020 03:43:17 13.1 C 65 %
24 02-05-2020 03:53:17 13.1 C 65 %
25 02-05-2020 04:03:18 13.1 C 65 %
Sensor: Nr:Datum:Temp:Feuchte:
G-T/H 26 02-05-2020 04:13:18 13.1 C 65 %
27 02-05-2020 04:23:17 13.1 C 65 %
28 02-05-2020 04:33:18 13.1 C 65 %
29 02-05-2020 04:43:18 13.1 C 65 %
30 02-05-2020 04:53:18 13 C 65 %
31 02-05-2020 05:03:17 13 C 65 %
32 02-05-2020 05:13:17 13 C 65 %
33 02-05-2020 05:23:17 13 C 65 %
34 02-05-2020 05:33:17 13 C 65 %
35 02-05-2020 05:43:17 13 C 65 %
36 02-05-2020 05:53:17 13 C 65 %
37 02-05-2020 06:03:17 13 C 65 %
38 02-05-2020 06:13:17 12.9 C 66 %
39 02-05-2020 06:23:17 12.9 C 66 %
40 02-05-2020 06:33:17 12.9 C 66 %
41 02-05-2020 06:43:17 12.9 C 66 %
42 02-05-2020 06:53:17 12.9 C 66 %
43 02-05-2020 07:03:17 12.9 C 66 %
44 02-05-2020 07:13:17 12.9 C 66 %
45 02-05-2020 07:23:17 12.8 C 66 %
46 02-05-2020 07:33:17 12.8 C 66 %
47 02-05-2020 07:43:17 12.8 C 66 %
48 02-05-2020 07:53:17 12.8 C 66 %
49 02-05-2020 08:03:17 12.8 C 66 %
50 02-05-2020 08:13:17 12.8 C 66 %
Sensor: Nr:Datum:Temp:Feuchte:
G-T/H 51 02-05-2020 08:23:17 12.8 C 66 %
52 02-05-2020 08:33:17 12.8 C 66 %
53 02-05-2020 08:43:17 12.8 C 66 %
54 02-05-2020 08:53:17 12.8 C 66 %
55 02-05-2020 09:03:17 12.8 C 66 %
56 02-05-2020 09:13:17 12.8 C 66 %
57 02-05-2020 09:23:17 12.8 C 66 %
58 02-05-2020 09:33:17 12.8 C 66 %
59 02-05-2020 09:43:17 12.8 C 66 %
60 02-05-2020 09:53:17 12.8 C 66 %
61 02-05-2020 10:03:18 12.8 C 66 %
62 02-05-2020 10:13:18 12.8 C 66 %
63 02-05-2020 10:23:17 12.7 C 66 %
64 02-05-2020 10:33:17 12.7 C 66 %
65 02-05-2020 10:43:17 12.7 C 66 %
66 02-05-2020 10:53:17 12.7 C 66 %
67 02-05-2020 11:03:17 12.7 C 66 %
68 02-05-2020 11:13:17 12.7 C 66 %
69 02-05-2020 11:23:17 12.7 C 66 %
70 02-05-2020 11:33:17 12.7 C 66 %
71 02-05-2020 11:43:17 12.7 C 66 %
72 02-05-2020 11:53:17 12.7 C 66 %
73 02-05-2020 12:03:17 12.7 C 66 %
74 02-05-2020 12:13:17 12.8 C 66 %
75 02-05-2020 12:23:17 12.8 C 66 %
Sensor: Nr:Datum:Temp:Feuchte:
G-T/H 76 02-05-2020 12:33:18 12.8 C 66 %
77 02-05-2020 12:43:18 12.7 C 66 %
78 02-05-2020 12:53:17 12.8 C 66 %
79 02-05-2020 13:03:17 12.7 C 66 %
80 02-05-2020 13:13:17 12.7 C 66 %
81 02-05-2020 13:23:17 12.7 C 66 %
82 02-05-2020 13:33:17 12.7 C 66 %
83 02-05-2020 13:43:17 12.7 C 66 %
84 02-05-2020 13:53:17 12.7 C 66 %
85 02-05-2020 14:03:17 12.8 C 66 %
86 02-05-2020 14:13:17 12.7 C 66 %
87 02-05-2020 14:23:18 12.7 C 66 %
88 02-05-2020 14:33:17 12.8 C 66 %
89 02-05-2020 14:43:18 12.8 C 66 %
90 02-05-2020 14:53:17 12.7 C 66 %
91 02-05-2020 15:03:17 12.7 C 66 %
92 02-05-2020 15:13:17 12.8 C 66 %
93 02-05-2020 15:23:17 12.7 C 66 %
94 02-05-2020 15:33:18 12.7 C 66 %
95 02-05-2020 15:43:18 12.8 C 66 %
96 02-05-2020 15:53:17 12.8 C 66 %
97 02-05-2020 16:03:17 12.8 C 66 %
98 02-05-2020 16:13:17 12.8 C 66 %
99 02-05-2020 16:23:17 12.8 C 67 %
100 02-05-2020 16:33:17 12.8 C 67 %
Sensor: Nr:Datum:Temp:Feuchte:
G-T/H 101 02-05-2020 16:43:17 12.8 C 67 %
102 02-05-2020 16:53:17 12.8 C 67 %
103 02-05-2020 17:03:17 12.9 C 67 %
104 02-05-2020 17:13:17 12.8 C 67 %
105 02-05-2020 17:23:18 12.9 C 67 %
106 02-05-2020 17:33:18 12.9 C 67 %
107 02-05-2020 17:43:18 12.9 C 67 %
108 02-05-2020 17:53:17 12.9 C 67 %
109 02-05-2020 18:03:17 12.9 C 67 %
110 02-05-2020 18:13:17 12.9 C 67 %
111 02-05-2020 18:23:17 13 C 66 %
112 02-05-2020 18:33:17 13 C 66 %
113 02-05-2020 18:43:17 12.9 C 67 %
114 02-05-2020 18:53:17 12.9 C 67 %
115 02-05-2020 19:03:17 12.9 C 66 %
116 02-05-2020 19:13:17 12.9 C 66 %
117 02-05-2020 19:23:17 12.9 C 66 %
118 02-05-2020 19:33:17 12.9 C 66 %
119 02-05-2020 19:43:18 12.9 C 66 %
120 02-05-2020 19:53:17 12.9 C 66 %
121 02-05-2020 20:03:17 13 C 66 %
122 02-05-2020 20:13:17 13 C 66 %
123 02-05-2020 20:23:17 13 C 66 %
124 02-05-2020 20:33:17 13 C 66 %
125 02-05-2020 20:43:17 13 C 66 %
Sensor: Nr:Datum:Temp:Feuchte:
G-T/H 126 02-05-2020 20:53:17 13 C 66 %
127 02-05-2020 21:03:17 13 C 66 %
128 02-05-2020 21:13:17 12.9 C 67 %
129 02-05-2020 21:23:17 12.9 C 67 %
130 02-05-2020 21:33:17 12.9 C 66 %
131 02-05-2020 21:43:17 12.9 C 66 %
132 02-05-2020 21:53:18 12.9 C 66 %
133 02-05-2020 22:03:17 12.9 C 66 %
134 02-05-2020 22:13:17 12.9 C 66 %
135 02-05-2020 22:23:17 12.9 C 66 %
136 02-05-2020 22:33:17 12.9 C 66 %
137 02-05-2020 22:43:17 12.9 C 66 %
138 02-05-2020 22:53:18 12.9 C 66 %
139 02-05-2020 23:03:17 12.9 C 66 %
140 02-05-2020 23:13:17 12.9 C 66 %
141 02-05-2020 23:23:17 12.8 C 66 %
142 02-05-2020 23:33:17 12.8 C 66 %
143 02-05-2020 23:43:17 12.8 C 66 %
144 02-05-2020 23:53:17 12.8 C 66 %
145 03-05-2020 00:03:17 12.8 C 66 %
146 03-05-2020 00:13:17 12.8 C 66 %
147 03-05-2020 00:23:17 12.8 C 66 %
148 03-05-2020 00:33:17 12.8 C 66 %
149 03-05-2020 00:43:17 12.8 C 66 %
150 03-05-2020 00:53:17 12.7 C 66 %
Sensor: Nr:Datum:Temp:Feuchte:
G-T/H 151 03-05-2020 01:03:18 12.7 C 66 %
152 03-05-2020 01:13:18 12.7 C 66 %
153 03-05-2020 01:23:17 12.7 C 66 %
154 03-05-2020 01:33:18 12.7 C 66 %
155 03-05-2020 01:43:18 12.7 C 66 %
156 03-05-2020 01:53:18 12.7 C 66 %
157 03-05-2020 02:03:18 12.6 C 66 %
158 03-05-2020 02:13:18 12.6 C 66 %
159 03-05-2020 02:23:17 12.6 C 66 %
160 03-05-2020 02:33:18 12.6 C 66 %
161 03-05-2020 02:43:18 12.6 C 66 %
162 03-05-2020 02:53:17 12.6 C 66 %
163 03-05-2020 03:03:17 12.6 C 66 %
164 03-05-2020 03:13:17 12.5 C 66 %
165 03-05-2020 03:23:17 12.5 C 66 %
166 03-05-2020 03:33:18 12.5 C 66 %
167 03-05-2020 03:43:18 12.5 C 66 %
168 03-05-2020 03:53:17 12.5 C 66 %
169 03-05-2020 04:03:18 12.4 C 66 %
170 03-05-2020 04:13:18 12.4 C 66 %
171 03-05-2020 04:23:18 12.4 C 66 %
172 03-05-2020 04:33:17 12.4 C 65 %
173 03-05-2020 04:43:17 12.3 C 65 %
174 03-05-2020 04:53:17 12.3 C 65 %
175 03-05-2020 05:03:17 12.3 C 65 %
Sensor: Nr:Datum:Temp:Feuchte:
G-T/H 176 03-05-2020 05:13:17 12.3 C 65 %
177 03-05-2020 05:23:17 12.2 C 64 %
178 03-05-2020 05:33:17 12.2 C 64 %
179 03-05-2020 05:43:17 12.2 C 64 %
180 03-05-2020 05:53:17 12.2 C 64 %
181 03-05-2020 06:03:17 12.1 C 64 %
182 03-05-2020 06:13:17 12.1 C 64 %
183 03-05-2020 06:23:17 12.1 C 64 %
184 03-05-2020 06:33:18 12.1 C 64 %
185 03-05-2020 06:43:18 12 C 64 %
186 03-05-2020 06:53:17 12 C 64 %
187 03-05-2020 07:03:17 12 C 64 %
188 03-05-2020 07:13:17 12 C 64 %
189 03-05-2020 07:23:18 12 C 64 %
190 03-05-2020 07:33:18 12 C 64 %
191 03-05-2020 07:43:18 12 C 64 %
192 03-05-2020 07:53:18 12 C 64 %
193 03-05-2020 08:03:18 12 C 64 %
194 03-05-2020 08:13:18 12 C 64 %
195 03-05-2020 08:23:18 11.9 C 65 %
196 03-05-2020 08:33:17 11.9 C 65 %
197 03-05-2020 08:43:17 11.9 C 65 %
198 03-05-2020 08:53:17 11.9 C 65 %
199 03-05-2020 09:03:17 12 C 65 %
200 03-05-2020 09:13:17 11.9 C 65 %
Sensor: Nr:Datum:Temp:Feuchte:
G-T/H 201 03-05-2020 09:23:17 11.9 C 65 %
202 03-05-2020 09:33:18 11.9 C 66 %
203 03-05-2020 09:43:18 11.9 C 66 %
204 03-05-2020 09:53:17 11.9 C 66 %
205 03-05-2020 10:03:17 11.9 C 66 %
206 03-05-2020 10:13:17 11.9 C 66 %
207 03-05-2020 10:23:18 11.9 C 66 %
208 03-05-2020 10:33:17 11.9 C 66 %
209 03-05-2020 10:43:17 12 C 65 %
210 03-05-2020 10:53:17 11.9 C 66 %
211 03-05-2020 11:03:17 11.9 C 66 %
212 03-05-2020 11:13:17 11.9 C 66 %
213 03-05-2020 11:23:17 11.9 C 66 %
214 03-05-2020 11:33:17 11.9 C 66 %
215 03-05-2020 11:43:18 12 C 66 %
216 03-05-2020 11:53:18 12 C 66 %
217 03-05-2020 12:03:18 12 C 66 %
218 03-05-2020 12:13:18 12 C 66 %
219 03-05-2020 12:23:17 12 C 66 %
220 03-05-2020 12:33:18 12 C 66 %
221 03-05-2020 12:43:18 12 C 66 %
222 03-05-2020 12:53:17 12.1 C 66 %
223 03-05-2020 13:03:18 12.1 C 66 %
224 03-05-2020 13:13:18 12.1 C 66 %
225 03-05-2020 13:23:17 12.1 C 66 %
Sensor: Nr:Datum:Temp:Feuchte:
G-T/H 226 03-05-2020 13:33:18 12.1 C 66 %
227 03-05-2020 13:43:18 12.1 C 66 %
228 03-05-2020 13:53:18 12.2 C 66 %
229 03-05-2020 14:03:18 12.2 C 66 %
230 03-05-2020 14:13:18 12.2 C 66 %
231 03-05-2020 14:23:17 12.3 C 66 %
232 03-05-2020 14:33:18 12.3 C 66 %
233 03-05-2020 14:43:18 12.3 C 66 %
234 03-05-2020 14:53:17 12.4 C 66 %
235 03-05-2020 15:03:17 12.4 C 66 %
236 03-05-2020 15:13:17 12.4 C 66 %
237 03-05-2020 15:23:17 12.4 C 66 %
238 03-05-2020 15:33:18 12.5 C 66 %
239 03-05-2020 15:43:18 12.5 C 66 %
240 03-05-2020 15:53:17 12.5 C 66 %
241 03-05-2020 16:03:17 12.6 C 66 %
242 03-05-2020 16:13:17 12.6 C 66 %
243 03-05-2020 16:23:17 12.6 C 66 %
244 03-05-2020 16:33:18 12.6 C 66 %
245 03-05-2020 16:43:18 12.7 C 66 %
246 03-05-2020 16:53:17 12.7 C 66 %
247 03-05-2020 17:03:17 12.7 C 66 %
248 03-05-2020 17:13:17 12.7 C 66 %
249 03-05-2020 17:23:18 12.8 C 66 %
250 03-05-2020 17:33:17 12.8 C 66 %
Sensor: Nr:Datum:Temp:Feuchte:
G-T/H 251 03-05-2020 17:43:17 12.8 C 66 %
252 03-05-2020 17:53:18 12.8 C 66 %
253 03-05-2020 18:03:18 12.8 C 66 %
254 03-05-2020 18:13:18 12.9 C 66 %
255 03-05-2020 18:23:17 12.9 C 66 %
256 03-05-2020 18:33:17 12.9 C 66 %
257 03-05-2020 18:43:17 13 C 65 %
258 03-05-2020 18:53:17 13 C 65 %
259 03-05-2020 19:03:17 13 C 65 %
260 03-05-2020 19:13:17 13 C 66 %
261 03-05-2020 19:23:17 13 C 66 %
262 03-05-2020 19:33:18 13.1 C 66 %
263 03-05-2020 19:43:18 13.1 C 66 %
264 03-05-2020 19:53:17 13.1 C 66 %
265 03-05-2020 20:03:17 13.1 C 66 %
266 03-05-2020 20:13:17 13.1 C 66 %
267 03-05-2020 20:23:17 13.1 C 66 %
268 03-05-2020 20:33:18 13.1 C 66 %
269 03-05-2020 20:43:18 13.1 C 66 %
270 03-05-2020 20:53:17 13.2 C 66 %
271 03-05-2020 21:03:17 13.2 C 66 %
272 03-05-2020 21:13:17 13.2 C 66 %
273 03-05-2020 21:23:17 13.2 C 66 %
274 03-05-2020 21:33:17 13.2 C 66 %
275 03-05-2020 21:43:18 13.2 C 66 %
Sensor: Nr:Datum:Temp:Feuchte:
G-T/H 276 03-05-2020 21:53:17 13.2 C 66 %
277 03-05-2020 22:03:18 13.2 C 66 %
278 03-05-2020 22:13:18 13.2 C 66 %
279 03-05-2020 22:23:17 13.2 C 66 %
280 03-05-2020 22:33:17 13.2 C 66 %
281 03-05-2020 22:43:17 13.3 C 66 %
282 03-05-2020 22:53:18 13.3 C 66 %
283 03-05-2020 23:03:17 13.3 C 66 %
284 03-05-2020 23:13:17 13.3 C 66 %
285 03-05-2020 23:23:17 13.3 C 66 %
286 03-05-2020 23:33:17 13.3 C 66 %
287 03-05-2020 23:43:17 13.3 C 66 %
288 03-05-2020 23:53:17 13.4 C 66 %
289 04-05-2020 00:03:17 13.3 C 66 %
290 04-05-2020 00:13:17 13.4 C 66 %
291 04-05-2020 00:23:17 13.3 C 66 %
292 04-05-2020 00:33:18 13.3 C 66 %
293 04-05-2020 00:43:18 13.3 C 66 %
294 04-05-2020 00:53:17 13.3 C 67 %
295 04-05-2020 01:03:17 13.4 C 67 %
296 04-05-2020 01:13:17 13.4 C 67 %
297 04-05-2020 01:23:17 13.3 C 67 %
298 04-05-2020 01:33:17 13.4 C 67 %
299 04-05-2020 01:43:17 13.3 C 67 %
300 04-05-2020 01:53:17 13.4 C 67 %
Sensor: Nr:Datum:Temp:Feuchte:
G-T/H 301 04-05-2020 02:03:17 13.3 C 67 %
302 04-05-2020 02:13:17 13.3 C 67 %
303 04-05-2020 02:23:17 13.3 C 67 %
304 04-05-2020 02:33:18 13.4 C 67 %
305 04-05-2020 02:43:18 13.4 C 67 %
306 04-05-2020 02:53:17 13.4 C 67 %
307 04-05-2020 03:03:17 13.3 C 67 %
308 04-05-2020 03:13:17 13.4 C 66 %
309 04-05-2020 03:23:17 13.3 C 66 %
310 04-05-2020 03:33:17 13.4 C 66 %
311 04-05-2020 03:43:17 13.3 C 66 %
312 04-05-2020 03:53:18 13.4 C 66 %
313 04-05-2020 04:03:17 13.3 C 66 %
314 04-05-2020 04:13:17 13.4 C 66 %
315 04-05-2020 04:23:17 13.3 C 66 %
316 04-05-2020 04:33:17 13.4 C 66 %
317 04-05-2020 04:43:17 13.4 C 66 %
318 04-05-2020 04:53:18 13.4 C 66 %
319 04-05-2020 05:03:17 13.4 C 66 %
320 04-05-2020 05:13:17 13.3 C 66 %
321 04-05-2020 05:23:17 13.3 C 66 %
322 04-05-2020 05:33:18 13.3 C 66 %
323 04-05-2020 05:43:18 13.3 C 66 %
324 04-05-2020 05:53:17 13.3 C 66 %
325 04-05-2020 06:03:18 13.3 C 66 %
Sensor: Nr:Datum:Temp:Feuchte:
G-T/H 326 04-05-2020 06:13:18 13.3 C 66 %
327 04-05-2020 06:23:18 13.3 C 66 %
328 04-05-2020 06:33:17 13.3 C 66 %
329 04-05-2020 06:43:17 13.3 C 66 %
330 04-05-2020 06:53:17 13.3 C 66 %
331 04-05-2020 07:03:17 13.3 C 66 %
332 04-05-2020 07:13:17 13.3 C 66 %
333 04-05-2020 07:23:17 13.3 C 66 %
334 04-05-2020 07:33:17 13.3 C 66 %
335 04-05-2020 07:43:18 13.3 C 66 %
336 04-05-2020 07:53:17 13.3 C 66 %
337 04-05-2020 08:03:17 13.3 C 66 %
338 04-05-2020 08:13:17 13.3 C 66 %
339 04-05-2020 08:23:17 13.3 C 66 %
340 04-05-2020 08:33:17 13.2 C 66 %
341 04-05-2020 08:43:18 13.2 C 66 %
342 04-05-2020 08:53:17 13.2 C 66 %
343 04-05-2020 09:03:18 13.3 C 66 %
344 04-05-2020 09:13:18 13.3 C 66 %
345 04-05-2020 09:23:18 13.3 C 66 %
346 04-05-2020 09:33:17 13.3 C 67 %
347 04-05-2020 09:43:17 13.3 C 67 %
348 04-05-2020 09:53:17 13.2 C 67 %
349 04-05-2020 10:03:18 13.3 C 67 %
350 04-05-2020 10:13:18 13.3 C 67 %
Sensor: Nr:Datum:Temp:Feuchte:
G-T/H 351 04-05-2020 10:23:17 13.3 C 67 %
352 04-05-2020 10:33:18 13.3 C 67 %
353 04-05-2020 10:43:18 13.3 C 67 %
354 04-05-2020 10:53:17 13.3 C 67 %
355 04-05-2020 11:03:17 13.3 C 67 %
356 04-05-2020 11:13:17 13.3 C 67 %
357 04-05-2020 11:23:17 13.3 C 67 %
358 04-05-2020 11:33:18 13.3 C 67 %
359 04-05-2020 11:43:18 13.3 C 67 %
360 04-05-2020 11:53:17 13.3 C 67 %
361 04-05-2020 12:03:17 13.3 C 67 %
362 04-05-2020 12:13:17 13.3 C 67 %
363 04-05-2020 12:23:17 13.3 C 67 %
364 04-05-2020 12:33:17 13.3 C 67 %
365 04-05-2020 12:43:17 13.3 C 67 %
366 04-05-2020 12:53:17 13.3 C 67 %
367 04-05-2020 13:03:18 13.3 C 67 %
368 04-05-2020 13:13:18 13.3 C 67 %
369 04-05-2020 13:23:17 13.3 C 67 %
370 04-05-2020 13:33:17 13.3 C 67 %
371 04-05-2020 13:43:17 13.3 C 67 %
372 04-05-2020 13:53:17 13.3 C 67 %
373 04-05-2020 14:03:17 13.3 C 67 %
374 04-05-2020 14:13:17 13.3 C 67 %
375 04-05-2020 14:23:17 13.3 C 67 %
Sensor: Nr:Datum:Temp:Feuchte:
G-T/H 376 04-05-2020 14:33:17 13.3 C 67 %
377 04-05-2020 14:43:17 13.3 C 67 %
378 04-05-2020 14:53:17 13.3 C 67 %
379 04-05-2020 15:03:17 13.3 C 67 %
380 04-05-2020 15:13:17 13.3 C 67 %
381 04-05-2020 15:23:17 13.3 C 67 %
382 04-05-2020 15:33:17 13.3 C 67 %
383 04-05-2020 15:43:17 13.3 C 67 %
384 04-05-2020 15:53:17 13.3 C 67 %
385 04-05-2020 16:03:18 13.3 C 67 %
386 04-05-2020 16:13:18 13.3 C 67 %
387 04-05-2020 16:23:17 13.3 C 67 %
388 04-05-2020 16:33:17 13.3 C 67 %
389 04-05-2020 16:43:17 13.3 C 67 %
390 04-05-2020 16:53:18 13.3 C 67 %
391 04-05-2020 17:03:18 13.3 C 67 %
392 04-05-2020 17:13:18 13.3 C 67 %
393 04-05-2020 17:23:17 13.3 C 67 %
394 04-05-2020 17:33:18 13.3 C 67 %
395 04-05-2020 17:43:18 13.3 C 67 %
396 04-05-2020 17:53:17 13.3 C 67 %
397 04-05-2020 18:03:17 13.3 C 67 %
398 04-05-2020 18:13:17 13.3 C 67 %
399 04-05-2020 18:23:17 13.3 C 67 %
400 04-05-2020 18:33:17 13.3 C 67 %
Sensor: Nr:Datum:Temp:Feuchte:
G-T/H 401 04-05-2020 18:43:17 13.3 C 67 %
402 04-05-2020 18:53:17 13.3 C 67 %
403 04-05-2020 19:03:17 13.3 C 67 %
404 04-05-2020 19:13:17 13.3 C 67 %
405 04-05-2020 19:23:17 13.3 C 67 %
406 04-05-2020 19:33:17 13.3 C 67 %
407 04-05-2020 19:43:17 13.3 C 67 %
408 04-05-2020 19:53:17 13.3 C 67 %
409 04-05-2020 20:03:18 13.3 C 67 %
410 04-05-2020 20:13:18 13.3 C 67 %
411 04-05-2020 20:23:17 13.3 C 67 %
412 04-05-2020 20:33:17 13.3 C 67 %
413 04-05-2020 20:43:18 13.3 C 67 %

Legende:
   Min
   Max


Maximal/Minimal-Werte vom 02.05.2020 - 08.05.2020

Sensor Min Max Avg
Temp
(Aussen-T/F)
1.4 °C
06-05-2020  06:13:18
32 °C
08-05-2020  16:24:17
12.03 °C
Feuchte
(Aussen-T/F)
20 %
02-05-2020  16:13:17
48 %
03-05-2020  05:03:17
32.88 %
Temp
(G-T/H)
11.9 °C
03-05-2020  08:23:18
13.4 °C
03-05-2020  23:53:17
12.89 °C
Feuchte
(G-T/H)
64 %
03-05-2020  05:23:17
67 %
04-05-2020  10:13:18
66.02 %

Die Daten stammen von einer Davis Vantage Pro 2 Wetter-Station und werden unter Linux mit der Software wview2wettercgi und aufbereitet. Alle Angaben erfolgen ohne Gewähr für ihre Vollständigkeit oder Richtigkeit.
Kontakt: Rainer Krienke krienke@uni-koblenz.de . Meine Webseiten an der Uni Koblenz oder privat.
Version: $Revision: 0.78 $